This is the latest recevied weather packets stored in our database for station/object AK6OS. If no packets are shown the sender has not sent any weather packets the latest 10 day(s).
| Time | Temp. | Humidity | Pressure | Rain* | Wind** | Luminosity | Snow |
|---|---|---|---|---|---|---|---|
| 1777934759 | 18.89° C | 68% | 1016.8 hPa | 0 mm | - | 722 W/m² | - |
| 1777933518 | 18.89° C | 65% | 1016.9 hPa | 0 mm | - | 773 W/m² | - |
| 1777926917 | 18.89° C | 64% | 1017.3 hPa | 0 mm | - | 739 W/m² | - |
| 1777923918 | 19.44° C | 62% | 1017.2 hPa | 0 mm | - | 1063 W/m² | - |
| 1777919116 | 18.89° C | 63% | 1017.3 hPa | 0 mm | - | 879 W/m² | - |
| 1777911318 | 17.22° C | 69% | 1017.4 hPa | 0 mm | - | 535 W/m² | - |
| 1777910718 | 16.67° C | 71% | 1017.4 hPa | 0 mm | - | 500 W/m² | - |
| 1777908360 | 11.67° C | 86% | 1017.4 hPa | 0 mm | - | 241 W/m² | - |
| 1777907116 | 11.11° C | 88% | 1017.3 hPa | 0 mm | - | 111 W/m² | - |
| 1777905318 | 10.56° C | 89% | 1017.1 hPa | 0 mm | - | 88 W/m² | - |
| 1777900518 | 7.78° C | 94% | 1016.7 hPa | 0 mm | - | 6 W/m² | - |
| 1777896316 | 8.33° C | 93% | 1016.4 hPa | 0 mm | - | 0 W/m² | - |
| 1777894516 | 8.89° C | 92% | 1016.7 hPa | 0 mm | - | 0 W/m² | - |
| 1777885515 | 8.89° C | 93% | 1017.4 hPa | 0 mm | - | 0 W/m² | - |
| 1777884916 | 8.33° C | 93% | 1017.6 hPa | 0 mm | - | 0 W/m² | - |
| 1777877718 | 10° C | 91% | 1017.6 hPa | 0 mm | - | 0 W/m² | - |
| 1777872318 | 11.11° C | 88% | 1017.7 hPa | 0 mm | - | 0 W/m² | - |
| 1777869938 | 12.22° C | 86% | 1017.3 hPa | 0 mm | - | 0 W/m² | - |
| 1777868117 | 13.33° C | 80% | 1016.8 hPa | 0 mm | - | 0 W/m² | - |
| 1777863316 | 15° C | 76% | 1016.1 hPa | 0 mm | - | 3 W/m² | - |
| 1777859117 | 17.22° C | 68% | 1015.8 hPa | 0 mm | - | 119 W/m² | - |
| 1777849517 | 19.44° C | 59% | 1015.3 hPa | 0 mm | - | 455 W/m² | - |
| 1777848317 | 20° C | 56% | 1015.4 hPa | 0 mm | - | 716 W/m² | - |
| 1777844760 | 20° C | 58% | 1015.7 hPa | 0 mm | - | 857 W/m² | - |
| 1777841717 | 19.44° C | 59% | 1015.8 hPa | 0 mm | - | 931 W/m² | - |
* Rain latest hour (hover to see other rain measurements)
** Current wind speed in m/s (hover to see current wind gust speed)